createdAt,value
2023-04-27T00:01:14.517Z,7.57
2023-04-27T00:04:40.242Z,7.78
2023-04-27T00:08:05.767Z,8.97
2023-04-27T00:11:31.611Z,8.23
2023-04-27T00:14:58.236Z,7.50
2023-04-27T00:18:24.644Z,6.03
2023-04-27T00:21:50.655Z,6.27
2023-04-27T00:25:16.785Z,8.15
2023-04-27T00:28:42.787Z,7.57
2023-04-27T00:32:09.892Z,8.05
2023-04-27T00:35:36.350Z,7.95
2023-04-27T00:39:02.221Z,9.07
2023-04-27T00:42:31.153Z,8.82
2023-04-27T00:45:56.847Z,6.03
2023-04-27T00:49:23.297Z,7.20
2023-04-27T00:52:47.715Z,10.13
2023-04-27T00:56:13.613Z,7.72
2023-04-27T00:59:40.320Z,8.43
2023-04-27T01:03:06.288Z,8.75
2023-04-27T01:06:33.708Z,5.82
2023-04-27T01:10:01.152Z,7.43
2023-04-27T01:13:26.778Z,6.10
2023-04-27T01:16:52.754Z,6.20
2023-04-27T01:20:18.546Z,6.25
2023-04-27T01:23:45.709Z,7.82
2023-04-27T01:27:11.325Z,6.80
2023-04-27T01:30:35.758Z,8.68
2023-04-27T01:34:01.184Z,6.62
2023-04-27T01:37:25.840Z,7.28
2023-04-27T01:40:53.442Z,9.50
2023-04-27T01:44:18.200Z,6.85
2023-04-27T01:47:44.078Z,6.18
2023-04-27T01:51:09.651Z,6.32
2023-04-27T01:54:35.713Z,7.70
2023-04-27T01:58:02.712Z,6.47
2023-04-27T02:01:29.650Z,7.82
2023-04-27T02:04:55.593Z,6.97
2023-04-27T02:08:20.935Z,8.90
2023-04-27T02:11:47.143Z,7.77
2023-04-27T02:15:14.211Z,7.65
2023-04-27T02:18:39.361Z,8.10
2023-04-27T02:22:07.674Z,9.07
2023-04-27T02:25:33.444Z,8.70
2023-04-27T02:29:00.289Z,9.00
2023-04-27T02:32:27.768Z,9.20
2023-04-27T02:35:53.644Z,7.72
2023-04-27T02:39:19.812Z,7.45
2023-04-27T02:42:47.057Z,9.17
2023-04-27T02:46:14.571Z,7.37
2023-04-27T02:49:43.000Z,6.85
2023-04-27T02:53:07.948Z,8.15
2023-04-27T02:56:33.913Z,10.47
2023-04-27T03:00:01.614Z,10.95
2023-04-27T03:03:29.090Z,9.43
2023-04-27T03:06:55.529Z,8.30
2023-04-27T03:10:21.264Z,9.18
2023-04-27T03:13:47.078Z,7.00
2023-04-27T03:17:13.683Z,8.57
2023-04-27T03:20:40.148Z,13.62
2023-04-27T03:24:08.540Z,7.75
2023-04-27T03:27:33.343Z,9.27
2023-04-27T03:30:59.895Z,10.27
2023-04-27T03:34:25.956Z,8.73
2023-04-27T03:37:51.314Z,13.77
2023-04-27T03:41:17.680Z,7.60
2023-04-27T03:44:44.626Z,12.07
2023-04-27T03:48:11.081Z,8.48
2023-04-27T03:51:39.467Z,9.13
2023-04-27T03:55:04.511Z,8.32
2023-04-27T03:58:36.108Z,7.57
2023-04-27T04:02:04.541Z,7.62
2023-04-27T04:05:31.547Z,8.95
2023-04-27T04:08:56.728Z,9.43
2023-04-27T04:12:22.281Z,8.00
2023-04-27T04:15:49.402Z,9.80
2023-04-27T04:19:15.577Z,9.23
2023-04-27T04:22:41.716Z,10.52
2023-04-27T04:26:06.174Z,9.45
2023-04-27T04:29:30.293Z,10.70
2023-04-27T04:32:57.446Z,9.50
2023-04-27T04:36:24.706Z,7.70
2023-04-27T04:39:52.577Z,11.25
2023-04-27T04:43:15.906Z,10.57
2023-04-27T04:46:40.998Z,10.73
2023-04-27T04:50:10.606Z,9.57
2023-04-27T04:53:38.212Z,11.00
2023-04-27T04:57:04.535Z,9.65
2023-04-27T05:00:30.196Z,10.23
2023-04-27T05:03:57.951Z,10.73
2023-04-27T05:07:25.911Z,11.43
2023-04-27T05:10:52.694Z,11.20
2023-04-27T05:14:17.385Z,7.47
2023-04-27T05:17:42.096Z,9.68
2023-04-27T05:21:08.006Z,10.23
2023-04-27T05:24:35.175Z,10.50
2023-04-27T05:28:00.903Z,8.07
2023-04-27T05:31:26.398Z,10.20
2023-04-27T05:34:52.093Z,11.90
2023-04-27T05:38:18.004Z,10.10
2023-04-27T05:41:45.006Z,10.70
2023-04-27T05:45:10.037Z,11.75
2023-04-27T05:48:36.009Z,8.25
2023-04-27T05:52:01.504Z,8.10
2023-04-27T05:55:26.933Z,9.10
2023-04-27T05:58:53.019Z,11.57
2023-04-27T06:02:18.570Z,13.10
2023-04-27T06:05:43.546Z,6.47
2023-04-27T06:09:08.873Z,7.80
2023-04-27T06:12:35.313Z,6.45
2023-04-27T06:16:02.907Z,9.70
2023-04-27T06:19:28.999Z,6.62
2023-04-27T06:22:54.285Z,5.30
2023-04-27T06:26:19.634Z,8.68
2023-04-27T06:29:45.037Z,5.37
2023-04-27T06:33:12.122Z,6.82
2023-04-27T06:36:37.170Z,10.63
2023-04-27T06:40:02.779Z,7.47
2023-04-27T06:43:27.824Z,6.32
2023-04-27T06:46:53.392Z,6.47
2023-04-27T06:50:20.272Z,8.52
2023-04-27T06:53:45.723Z,6.62
2023-04-27T06:57:09.840Z,6.37
2023-04-27T07:00:35.321Z,10.40
2023-04-27T07:03:59.908Z,8.93
2023-04-27T07:07:26.702Z,7.35
2023-04-27T07:10:51.023Z,7.03
2023-04-27T07:14:15.452Z,7.70
2023-04-27T07:17:40.743Z,5.70
2023-04-27T07:21:06.649Z,7.22
2023-04-27T07:24:33.254Z,7.60
2023-04-27T07:28:00.164Z,7.85
2023-04-27T07:31:27.127Z,6.13
2023-04-27T07:34:53.965Z,6.97
2023-04-27T07:38:19.078Z,7.90
2023-04-27T07:41:47.268Z,6.37
2023-04-27T07:45:11.803Z,8.15
2023-04-27T07:48:36.780Z,8.70
2023-04-27T07:52:01.138Z,13.65
2023-04-27T07:55:26.806Z,7.55
2023-04-27T07:58:55.218Z,6.07
2023-04-27T08:02:20.504Z,8.10
2023-04-27T08:05:45.806Z,5.03
2023-04-27T08:09:10.872Z,5.37
2023-04-27T08:12:35.631Z,7.60
2023-04-27T08:16:01.240Z,5.85
2023-04-27T08:19:26.139Z,4.73
2023-04-27T08:22:50.836Z,10.95
2023-04-27T08:26:18.521Z,5.90
2023-04-27T08:29:47.518Z,7.57
2023-04-27T08:33:14.016Z,4.80
2023-04-27T08:36:38.736Z,6.47
2023-04-27T08:40:04.150Z,6.43
2023-04-27T08:43:30.079Z,5.62
2023-04-27T08:46:55.337Z,5.30
2023-04-27T08:50:22.676Z,6.78
2023-04-27T08:53:51.484Z,6.97
2023-04-27T08:57:16.820Z,5.82
2023-04-27T09:00:42.746Z,5.45
2023-04-27T09:04:07.885Z,4.70
2023-04-27T09:07:32.661Z,4.82
2023-04-27T09:10:55.609Z,5.65
2023-04-27T09:14:20.488Z,4.93
2023-04-27T09:17:43.446Z,5.28
2023-04-27T09:21:07.541Z,3.93
2023-04-27T09:24:34.391Z,6.07
2023-04-27T09:28:01.030Z,6.57
2023-04-27T09:31:32.880Z,4.43
2023-04-27T09:35:00.124Z,5.87
2023-04-27T09:38:24.537Z,5.95
2023-04-27T09:41:51.279Z,4.68
2023-04-27T09:45:14.959Z,6.07
2023-04-27T09:48:42.886Z,4.68
2023-04-27T09:52:07.420Z,6.07
2023-04-27T09:55:34.072Z,5.72
2023-04-27T09:59:10.750Z,4.22
2023-04-27T10:02:50.098Z,6.30
2023-04-27T10:07:02.420Z,4.78
2023-04-27T10:10:26.904Z,4.33
2023-04-27T10:13:54.856Z,4.95
2023-04-27T10:17:20.499Z,4.30
2023-04-27T10:20:45.921Z,3.72
2023-04-27T10:24:11.550Z,5.93
2023-04-27T10:27:41.805Z,5.40
2023-04-27T10:31:12.966Z,6.35
2023-04-27T10:34:40.544Z,3.87
2023-04-27T10:38:08.669Z,8.10
2023-04-27T10:41:37.541Z,5.55
2023-04-27T10:45:03.292Z,4.87
2023-04-27T10:48:28.208Z,5.22
2023-04-27T10:51:53.922Z,5.68
2023-04-27T10:55:20.413Z,5.72
2023-04-27T10:58:49.388Z,5.37
2023-04-27T11:02:15.437Z,4.83
2023-04-27T11:05:41.352Z,5.50
2023-04-27T11:09:11.277Z,5.50
2023-04-27T11:12:34.810Z,6.20
2023-04-27T11:15:58.496Z,6.20
2023-04-27T11:19:21.290Z,5.93
2023-04-27T11:22:47.681Z,8.50
2023-04-27T11:26:15.490Z,5.18
2023-04-27T11:29:41.318Z,9.18
2023-04-27T11:33:12.484Z,5.57
2023-04-27T11:36:38.553Z,6.40
2023-04-27T11:40:03.594Z,4.57
2023-04-27T11:43:30.208Z,4.20
2023-04-27T11:46:55.566Z,5.07
2023-04-27T11:50:20.428Z,6.93
2023-04-27T11:53:51.748Z,6.13
2023-04-27T11:57:17.409Z,5.25
2023-04-27T12:00:45.279Z,6.75
2023-04-27T12:04:10.031Z,4.25
2023-04-27T12:07:35.189Z,7.20
2023-04-27T12:10:58.824Z,5.23
2023-04-27T12:14:22.938Z,8.25
2023-04-27T12:17:49.700Z,9.30
2023-04-27T12:21:14.693Z,5.65
2023-04-27T12:24:39.296Z,7.70
2023-04-27T12:28:03.605Z,8.07
2023-04-27T12:31:28.165Z,9.02
2023-04-27T12:34:53.473Z,8.23
2023-04-27T12:38:18.401Z,10.55
2023-04-27T12:41:43.094Z,7.45
2023-04-27T12:45:09.025Z,5.77
2023-04-27T12:48:34.039Z,7.25
2023-04-27T12:52:00.268Z,6.43
2023-04-27T12:55:33.116Z,6.90
2023-04-27T12:58:58.889Z,6.05
2023-04-27T13:02:23.528Z,8.00
2023-04-27T13:05:47.706Z,5.22
2023-04-27T13:09:13.603Z,7.85
2023-04-27T13:12:37.936Z,6.60
2023-04-27T13:16:02.009Z,7.32
2023-04-27T13:19:27.356Z,5.87
2023-04-27T13:22:52.179Z,6.70
2023-04-27T13:26:18.712Z,6.20
2023-04-27T13:29:43.208Z,4.20
2023-04-27T13:33:21.925Z,8.27
2023-04-27T13:36:49.429Z,5.83
2023-04-27T13:40:15.143Z,6.80
2023-04-27T13:43:40.860Z,5.93
2023-04-27T13:47:05.895Z,6.93
2023-04-27T13:50:30.006Z,6.75
2023-04-27T13:53:53.884Z,11.37
2023-04-27T13:57:17.157Z,6.70
2023-04-27T14:00:41.665Z,7.12
2023-04-27T14:04:05.783Z,6.03
2023-04-27T14:07:30.923Z,7.72
2023-04-27T14:10:54.520Z,6.90
2023-04-27T14:14:18.341Z,5.40
2023-04-27T14:17:44.760Z,7.85
2023-04-27T14:21:09.176Z,5.55
2023-04-27T14:24:33.568Z,6.93
2023-04-27T14:27:57.754Z,6.73
2023-04-27T14:31:23.057Z,6.40
2023-04-27T14:34:51.318Z,4.57
2023-04-27T14:38:16.721Z,9.68
2023-04-27T14:41:41.061Z,7.97
2023-04-27T14:45:05.548Z,6.13
2023-04-27T14:48:29.870Z,8.38
2023-04-27T14:51:56.699Z,5.20
2023-04-27T14:55:21.973Z,5.18
2023-04-27T14:58:46.809Z,6.22
2023-04-27T15:02:11.424Z,6.73
2023-04-27T15:05:35.566Z,5.47
2023-04-27T15:09:01.654Z,5.43
2023-04-27T15:12:25.152Z,11.30
2023-04-27T15:15:48.140Z,5.90
2023-04-27T15:19:12.214Z,9.17
2023-04-27T15:22:35.257Z,6.45
2023-04-27T15:26:01.392Z,5.47
2023-04-27T15:29:25.617Z,5.18
2023-04-27T15:32:50.466Z,4.37
2023-04-27T15:36:14.748Z,5.20
2023-04-27T15:39:39.480Z,7.22
2023-04-27T15:43:05.402Z,5.40
2023-04-27T15:46:29.962Z,5.35
2023-04-27T15:49:58.018Z,4.35
2023-04-27T15:53:23.412Z,6.90
2023-04-27T15:56:47.620Z,7.15
2023-04-27T16:00:16.891Z,6.00
2023-04-27T16:03:41.513Z,5.28
2023-04-27T16:07:07.462Z,5.15
2023-04-27T16:10:31.504Z,5.70
2023-04-27T16:13:55.532Z,7.70
2023-04-27T16:17:21.811Z,5.28
2023-04-27T16:20:45.423Z,4.60
2023-04-27T16:24:09.902Z,8.23
2023-04-27T16:27:34.907Z,7.33
2023-04-27T16:30:59.933Z,6.05
2023-04-27T16:34:25.607Z,6.90
2023-04-27T16:37:50.509Z,6.93
2023-04-27T16:41:14.482Z,9.68
2023-04-27T16:44:39.341Z,6.47
2023-04-27T16:48:04.352Z,6.40
2023-04-27T16:51:30.783Z,5.47
2023-04-27T16:54:54.739Z,5.60
2023-04-27T16:58:19.165Z,6.72
2023-04-27T17:01:43.595Z,5.40
2023-04-27T17:05:08.332Z,7.72
2023-04-27T17:08:33.873Z,6.37
2023-04-27T17:11:58.409Z,7.85
2023-04-27T17:15:22.846Z,9.40
2023-04-27T17:18:47.518Z,6.32
2023-04-27T17:22:13.831Z,6.35
2023-04-27T17:25:40.140Z,5.50
2023-04-27T17:29:04.221Z,4.60
2023-04-27T17:32:28.473Z,6.93
2023-04-27T17:35:52.503Z,4.57
2023-04-27T17:39:17.353Z,7.95
2023-04-27T17:42:43.841Z,10.15
2023-04-27T17:46:10.160Z,8.27
2023-04-27T17:49:34.623Z,6.20
2023-04-27T17:53:00.996Z,5.82
2023-04-27T17:56:24.991Z,7.05
2023-04-27T17:59:51.534Z,4.87
2023-04-27T18:03:16.214Z,10.57
2023-04-27T18:06:42.776Z,12.30
2023-04-27T18:10:08.406Z,11.35
2023-04-27T18:13:34.004Z,15.70
2023-04-27T18:17:00.115Z,16.27
2023-04-27T18:20:27.356Z,10.98
2023-04-27T18:23:52.005Z,11.80
2023-04-27T18:27:17.580Z,9.23
2023-04-27T18:30:41.915Z,8.82
2023-04-27T18:34:08.104Z,20.02
2023-04-27T18:37:32.416Z,17.70
2023-04-27T18:40:57.285Z,8.63
2023-04-27T18:44:21.731Z,7.28
2023-04-27T18:47:45.848Z,11.70
2023-04-27T18:51:12.160Z,17.58
2023-04-27T18:54:38.058Z,15.98
2023-04-27T18:58:02.320Z,10.83
2023-04-27T19:01:28.250Z,13.38
2023-04-27T19:04:56.867Z,10.80
2023-04-27T19:08:33.706Z,11.75
2023-04-27T19:12:02.981Z,7.87
2023-04-27T19:15:29.512Z,7.30
2023-04-27T19:18:53.881Z,10.13
2023-04-27T19:22:19.238Z,9.52
2023-04-27T19:25:45.877Z,8.50
2023-04-27T19:29:13.028Z,12.70
2023-04-27T19:32:38.511Z,15.17
2023-04-27T19:36:04.790Z,12.75
2023-04-27T19:39:30.731Z,13.32
2023-04-27T19:42:59.101Z,14.93
2023-04-27T19:46:23.069Z,14.18
2023-04-27T19:49:48.708Z,16.83
2023-04-27T19:53:13.093Z,20.60
2023-04-27T19:56:37.903Z,17.70
2023-04-27T20:00:05.925Z,20.00
2023-04-27T20:03:38.467Z,19.87
2023-04-27T20:07:05.565Z,15.83
2023-04-27T20:10:29.900Z,16.42
2023-04-27T20:13:54.909Z,18.83
2023-04-27T20:17:20.727Z,17.67
2023-04-27T20:20:45.682Z,17.08
2023-04-27T20:24:10.131Z,17.43
2023-04-27T20:27:34.680Z,15.60
2023-04-27T20:30:58.405Z,16.27
2023-04-27T20:34:24.331Z,18.40
2023-04-27T20:37:48.211Z,16.90
2023-04-27T20:41:12.785Z,19.17
2023-04-27T20:44:36.403Z,16.05
2023-04-27T20:48:00.912Z,17.50
2023-04-27T20:51:26.615Z,20.08
2023-04-27T20:54:50.804Z,17.83
2023-04-27T20:58:14.773Z,23.23
2023-04-27T21:01:39.511Z,19.92
2023-04-27T21:05:04.436Z,26.35
2023-04-27T21:08:31.214Z,19.00
2023-04-27T21:11:55.722Z,18.37
2023-04-27T21:15:20.348Z,21.57
2023-04-27T21:18:44.376Z,20.48
2023-04-27T21:22:08.897Z,16.45
2023-04-27T21:25:35.542Z,20.40
2023-04-27T21:29:01.612Z,19.90
2023-04-27T21:32:26.926Z,23.30
2023-04-27T21:35:56.104Z,23.02
2023-04-27T21:39:20.588Z,16.35
2023-04-27T21:42:46.616Z,17.33
2023-04-27T21:46:10.949Z,19.60
2023-04-27T21:49:35.384Z,16.77
2023-04-27T21:52:59.189Z,17.02
2023-04-27T21:56:24.023Z,18.15
2023-04-27T21:59:49.795Z,17.30
2023-04-27T22:03:14.652Z,13.80
2023-04-27T22:06:39.099Z,14.97
2023-04-27T22:10:03.280Z,15.52
2023-04-27T22:13:27.678Z,15.90
2023-04-27T22:16:53.096Z,15.40
2023-04-27T22:20:17.891Z,14.20
2023-04-27T22:23:42.149Z,14.83
2023-04-27T22:27:07.068Z,15.95
2023-04-27T22:30:30.771Z,14.27
2023-04-27T22:33:56.696Z,13.18
2023-04-27T22:37:21.111Z,16.05
2023-04-27T22:40:45.714Z,16.47
2023-04-27T22:44:09.768Z,17.50
2023-04-27T22:47:34.388Z,17.42
2023-04-27T22:50:59.499Z,15.65
2023-04-27T22:54:24.271Z,16.33
2023-04-27T22:57:50.506Z,20.50
2023-04-27T23:01:15.134Z,19.20
2023-04-27T23:04:41.422Z,17.85
2023-04-27T23:08:07.512Z,18.12
2023-04-27T23:11:31.291Z,17.00
2023-04-27T23:14:56.080Z,16.57
2023-04-27T23:18:20.044Z,19.58
2023-04-27T23:21:44.421Z,16.92
2023-04-27T23:25:10.611Z,16.33
2023-04-27T23:28:35.495Z,17.95
2023-04-27T23:32:04.841Z,15.80
2023-04-27T23:35:30.224Z,15.43
2023-04-27T23:38:54.275Z,14.68
2023-04-27T23:42:19.614Z,18.23
2023-04-27T23:45:43.633Z,17.33
2023-04-27T23:49:08.232Z,18.47
2023-04-27T23:52:32.251Z,18.55
2023-04-27T23:55:57.254Z,16.90
2023-04-27T23:59:22.772Z,17.65
